createdAt,value
2022-08-07T00:02:36.255Z,1.20
2022-08-07T00:06:33.057Z,1.20
2022-08-07T00:10:48.289Z,1.20
2022-08-07T00:14:59.802Z,1.10
2022-08-07T00:19:03.592Z,1.13
2022-08-07T00:23:09.665Z,1.10
2022-08-07T00:27:12.204Z,1.27
2022-08-07T00:31:16.705Z,1.30
2022-08-07T00:35:23.158Z,1.30
2022-08-07T00:39:27.311Z,1.30
2022-08-07T00:43:59.538Z,1.38
2022-08-07T00:48:07.628Z,1.23
2022-08-07T00:52:12.551Z,1.38
2022-08-07T00:56:17.062Z,1.50
2022-08-07T01:00:20.460Z,1.10
2022-08-07T01:04:25.105Z,1.20
2022-08-07T01:08:27.987Z,1.33
2022-08-07T01:12:32.561Z,1.40
2022-08-07T01:16:37.415Z,1.40
2022-08-07T01:20:59.582Z,1.30
2022-08-07T01:25:53.669Z,1.40
2022-08-07T01:29:33.955Z,1.40
2022-08-07T01:33:55.429Z,1.58
2022-08-07T01:38:03.085Z,2.00
2022-08-07T01:42:38.250Z,1.30
2022-08-07T01:46:31.167Z,1.52
2022-08-07T01:50:37.665Z,1.40
2022-08-07T01:54:45.884Z,1.40
2022-08-07T01:58:55.377Z,1.60
2022-08-07T02:03:18.299Z,1.70
2022-08-07T02:07:35.815Z,1.50
2022-08-07T02:12:04.305Z,1.50
2022-08-07T02:16:12.609Z,1.40
2022-08-07T02:20:23.292Z,2.00
2022-08-07T02:24:29.942Z,1.48
2022-08-07T02:28:34.462Z,1.45
2022-08-07T02:33:00.773Z,1.60
2022-08-07T02:37:08.292Z,1.70
2022-08-07T02:41:14.018Z,1.52
2022-08-07T02:46:00.330Z,1.80
2022-08-07T02:49:57.964Z,1.63
2022-08-07T02:54:08.896Z,1.50
2022-08-07T02:58:13.925Z,1.60
2022-08-07T03:02:19.278Z,1.63
2022-08-07T03:06:25.812Z,1.50
2022-08-07T03:10:40.866Z,1.60
2022-08-07T03:14:52.820Z,1.60
2022-08-07T03:18:56.543Z,1.90
2022-08-07T03:23:02.627Z,1.80
2022-08-07T03:27:09.276Z,1.70
2022-08-07T03:31:26.153Z,1.65
2022-08-07T03:35:50.062Z,1.60
2022-08-07T03:40:07.397Z,1.70
2022-08-07T03:44:21.756Z,1.80
2022-08-07T03:48:45.521Z,1.73
2022-08-07T03:57:07.429Z,1.85
2022-08-07T04:01:11.924Z,1.88
2022-08-07T04:05:23.967Z,1.73
2022-08-07T04:09:44.867Z,1.90
2022-08-07T04:14:33.269Z,1.90
2022-08-07T04:18:58.697Z,1.75
2022-08-07T04:22:53.607Z,1.80
2022-08-07T04:27:05.299Z,1.70
2022-08-07T04:31:39.294Z,1.83
2022-08-07T04:35:51.266Z,2.15
2022-08-07T04:40:00.210Z,1.90
2022-08-07T04:44:12.192Z,1.80
2022-08-07T04:48:34.329Z,1.70
2022-08-07T04:58:15.327Z,1.92
2022-08-07T05:01:40.100Z,1.80
2022-08-07T05:05:57.384Z,1.90
2022-08-07T05:10:07.725Z,2.00
2022-08-07T05:14:55.214Z,2.00
2022-08-07T05:18:49.465Z,2.13
2022-08-07T05:22:59.228Z,2.08
2022-08-07T05:27:03.435Z,1.83
2022-08-07T05:31:08.761Z,1.85
2022-08-07T05:35:13.223Z,1.90
2022-08-07T05:40:05.492Z,1.90
2022-08-07T05:44:07.537Z,2.10
2022-08-07T05:48:09.022Z,2.15
2022-08-07T05:52:20.091Z,1.90
2022-08-07T05:56:30.228Z,2.00
2022-08-07T06:00:37.068Z,1.83
2022-08-07T06:04:50.775Z,2.10
2022-08-07T06:08:55.145Z,1.88
2022-08-07T06:13:02.224Z,1.80
2022-08-07T06:17:08.349Z,2.10
2022-08-07T06:22:17.021Z,1.98
2022-08-07T06:25:41.389Z,1.80
2022-08-07T06:29:59.277Z,1.85
2022-08-07T06:34:02.545Z,1.60
2022-08-07T06:38:06.464Z,1.90
2022-08-07T06:42:17.482Z,1.60
2022-08-07T06:46:41.427Z,1.50
2022-08-07T06:50:49.472Z,1.50
2022-08-07T06:55:33.272Z,1.42
2022-08-07T07:00:14.717Z,1.80
2022-08-07T07:03:49.830Z,1.23
2022-08-07T07:08:03.938Z,1.30
2022-08-07T07:12:31.276Z,1.20
2022-08-07T07:16:49.791Z,1.33
2022-08-07T07:20:58.406Z,1.20
2022-08-07T07:26:31.669Z,1.20
2022-08-07T07:29:38.896Z,1.42
2022-08-07T07:33:48.926Z,1.30
2022-08-07T07:38:02.902Z,1.10
2022-08-07T07:42:13.875Z,1.15
2022-08-07T07:46:36.790Z,1.30
2022-08-07T07:50:48.841Z,1.00
2022-08-07T07:54:56.577Z,1.00
2022-08-07T07:59:01.887Z,1.00
2022-08-07T08:03:09.218Z,0.80
2022-08-07T08:07:20.523Z,0.70
2022-08-07T08:11:59.811Z,0.80
2022-08-07T08:16:04.330Z,0.88
2022-08-07T08:20:18.464Z,0.93
2022-08-07T08:24:45.873Z,0.60
2022-08-07T08:28:53.399Z,0.88
2022-08-07T08:33:00.403Z,0.60
2022-08-07T08:37:09.748Z,0.80
2022-08-07T08:41:18.649Z,0.70
2022-08-07T08:45:41.464Z,0.80
2022-08-07T08:50:05.178Z,0.73
2022-08-07T08:54:11.981Z,1.23
2022-08-07T08:58:28.329Z,0.68
2022-08-07T09:02:41.895Z,0.70
2022-08-07T09:11:03.034Z,0.60
2022-08-07T09:16:21.841Z,0.90
2022-08-07T09:19:57.457Z,0.60
2022-08-07T09:24:34.482Z,0.80
2022-08-07T09:30:05.419Z,0.50
2022-08-07T09:33:16.438Z,0.55
2022-08-07T09:37:53.485Z,0.50
2022-08-07T09:42:07.709Z,0.70
2022-08-07T09:47:51.358Z,0.73
2022-08-07T09:51:14.804Z,0.50
2022-08-07T09:56:03.399Z,0.70
2022-08-07T10:00:14.817Z,0.45
2022-08-07T10:04:32.844Z,0.60
2022-08-07T10:08:56.916Z,0.60
2022-08-07T10:13:54.919Z,0.85
2022-08-07T10:18:12.014Z,0.60
2022-08-07T10:22:36.819Z,0.50
2022-08-07T10:26:53.004Z,0.47
2022-08-07T10:31:11.507Z,0.65
2022-08-07T10:35:25.671Z,0.50
2022-08-07T10:39:42.192Z,0.50
2022-08-07T10:44:13.293Z,0.50
2022-08-07T10:48:42.084Z,0.75
2022-08-07T10:52:56.502Z,0.50
2022-08-07T10:57:10.206Z,0.40
2022-08-07T11:01:35.595Z,0.50
2022-08-07T11:05:59.643Z,0.70
2022-08-07T11:10:11.743Z,0.55
2022-08-07T11:14:44.522Z,0.57
2022-08-07T11:18:51.006Z,0.40
2022-08-07T11:23:02.510Z,0.40
2022-08-07T11:27:16.497Z,0.85
2022-08-07T11:31:35.126Z,0.60
2022-08-07T11:36:00.187Z,0.60
2022-08-07T11:40:19.170Z,0.50
2022-08-07T11:44:31.145Z,0.65
2022-08-07T11:49:27.877Z,0.60
2022-08-07T11:53:35.576Z,0.68
2022-08-07T11:57:59.533Z,0.40
2022-08-07T12:02:30.071Z,0.50
2022-08-07T12:06:51.692Z,0.65
2022-08-07T12:11:21.876Z,0.50
2022-08-07T12:15:46.530Z,0.68
2022-08-07T12:20:03.430Z,0.52
2022-08-07T12:24:37.515Z,0.52
2022-08-07T12:28:49.882Z,0.50
2022-08-07T12:33:18.648Z,0.55
2022-08-07T12:37:23.483Z,0.45
2022-08-07T12:41:49.112Z,0.52
2022-08-07T12:46:25.924Z,0.60
2022-08-07T12:50:40.245Z,0.65
2022-08-07T12:55:03.743Z,0.52
2022-08-07T12:59:20.467Z,0.50
2022-08-07T13:04:02.120Z,0.60
2022-08-07T13:08:23.829Z,0.55
2022-08-07T13:12:38.624Z,0.60
2022-08-07T13:16:51.555Z,0.80
2022-08-07T13:20:59.211Z,0.45
2022-08-07T13:25:10.228Z,0.43
2022-08-07T13:29:24.645Z,0.57
2022-08-07T13:34:32.139Z,0.80
2022-08-07T13:38:04.879Z,0.63
2022-08-07T13:42:14.544Z,0.80
2022-08-07T13:46:33.819Z,0.65
2022-08-07T13:50:45.319Z,0.55
2022-08-07T13:59:21.427Z,0.75
2022-08-07T14:03:29.911Z,0.80
2022-08-07T14:07:59.981Z,0.73
2022-08-07T14:12:10.560Z,0.70
2022-08-07T14:16:17.711Z,0.40
2022-08-07T14:20:39.262Z,0.80
2022-08-07T14:24:51.152Z,0.70
2022-08-07T14:28:59.045Z,0.70
2022-08-07T14:33:06.189Z,0.70
2022-08-07T14:42:20.071Z,0.82
2022-08-07T14:46:00.089Z,0.52
2022-08-07T14:50:11.485Z,0.70
2022-08-07T14:54:32.877Z,0.40
2022-08-07T14:58:40.070Z,0.60
2022-08-07T15:02:47.045Z,0.75
2022-08-07T15:07:01.200Z,0.70
2022-08-07T15:13:06.525Z,0.50
2022-08-07T15:15:53.407Z,0.60
2022-08-07T15:20:32.367Z,0.68
2022-08-07T15:25:12.959Z,0.80
2022-08-07T15:30:09.206Z,0.60
2022-08-07T15:33:22.528Z,0.52
2022-08-07T15:38:18.337Z,0.70
2022-08-07T15:42:43.441Z,0.45
2022-08-07T15:51:08.665Z,0.57
2022-08-07T15:55:16.103Z,0.57
2022-08-07T15:59:38.949Z,0.82
2022-08-07T16:03:57.364Z,0.63
2022-08-07T16:08:32.106Z,0.55
2022-08-07T16:12:37.831Z,0.60
2022-08-07T16:16:56.797Z,1.10
2022-08-07T16:22:02.466Z,1.50
2022-08-07T16:25:55.300Z,0.60
2022-08-07T16:30:30.460Z,0.63
2022-08-07T16:34:48.089Z,0.60
2022-08-07T16:39:16.704Z,0.68
2022-08-07T16:44:05.658Z,0.68
2022-08-07T16:48:53.655Z,0.70
2022-08-07T16:54:02.073Z,0.73
2022-08-07T16:58:04.106Z,0.95
2022-08-07T17:02:52.287Z,0.60
2022-08-07T17:07:04.017Z,0.60
2022-08-07T17:11:14.406Z,0.50
2022-08-07T17:15:21.822Z,0.80
2022-08-07T17:20:01.665Z,0.60
2022-08-07T17:24:23.716Z,0.70
2022-08-07T17:28:38.161Z,0.70
2022-08-07T17:33:05.224Z,0.50
2022-08-07T17:38:06.419Z,0.63
2022-08-07T17:42:03.755Z,0.70
2022-08-07T17:46:16.151Z,0.90
2022-08-07T17:50:21.481Z,0.57
2022-08-07T17:54:54.053Z,0.73
2022-08-07T17:59:02.512Z,0.82
2022-08-07T18:03:19.139Z,0.60
2022-08-07T18:07:34.246Z,0.73
2022-08-07T18:12:06.775Z,0.65
2022-08-07T18:16:11.400Z,0.82
2022-08-07T18:21:03.433Z,0.85
2022-08-07T18:24:53.483Z,0.98
2022-08-07T18:30:07.918Z,0.88
2022-08-07T18:34:04.900Z,0.90
2022-08-07T18:38:56.135Z,1.02
2022-08-07T18:43:10.092Z,0.95
2022-08-07T18:47:20.960Z,0.90
2022-08-07T18:52:34.873Z,0.93
2022-08-07T18:56:08.102Z,1.00
2022-08-07T19:00:34.580Z,1.15
2022-08-07T19:04:57.907Z,1.05
2022-08-07T19:09:57.487Z,1.10
2022-08-07T19:13:55.342Z,1.00
2022-08-07T19:18:15.485Z,1.08
2022-08-07T19:22:30.765Z,0.93
2022-08-07T19:27:09.164Z,1.15
2022-08-07T19:31:38.193Z,0.90
2022-08-07T19:35:35.305Z,0.90
2022-08-07T19:39:57.389Z,1.05
2022-08-07T19:44:05.389Z,1.15
2022-08-07T19:48:42.126Z,0.93
2022-08-07T19:52:45.702Z,1.25
2022-08-07T19:58:01.164Z,1.00
2022-08-07T20:01:52.954Z,1.20
2022-08-07T20:06:00.692Z,1.27
2022-08-07T20:14:32.542Z,1.42
2022-08-07T20:18:35.792Z,1.70
